sensor_id;sensor_type;location;lat;lon;timestamp;P1;durP1;ratioP1;P2;durP2;ratioP2
18568;SDS011;14780;48.316;-1.050;2023-09-19T00:00:18;3.40;;;1.90;;
18568;SDS011;14780;48.316;-1.050;2023-09-19T00:03:04;2.65;;;1.67;;
18568;SDS011;14780;48.316;-1.050;2023-09-19T00:05:50;3.45;;;1.85;;
18568;SDS011;14780;48.316;-1.050;2023-09-19T00:08:34;2.80;;;1.73;;
18568;SDS011;14780;48.316;-1.050;2023-09-19T00:11:19;4.83;;;1.97;;
18568;SDS011;14780;48.316;-1.050;2023-09-19T00:14:03;3.40;;;1.75;;
18568;SDS011;14780;48.316;-1.050;2023-09-19T00:16:52;4.13;;;1.90;;
18568;SDS011;14780;48.316;-1.050;2023-09-19T00:19:38;4.03;;;1.90;;
18568;SDS011;14780;48.316;-1.050;2023-09-19T00:22:26;5.07;;;2.00;;
18568;SDS011;14780;48.316;-1.050;2023-09-19T00:25:11;3.83;;;2.20;;
18568;SDS011;14780;48.316;-1.050;2023-09-19T00:27:55;4.57;;;2.10;;
18568;SDS011;14780;48.316;-1.050;2023-09-19T00:30:42;3.92;;;2.10;;
18568;SDS011;14780;48.316;-1.050;2023-09-19T00:33:28;4.53;;;2.08;;
18568;SDS011;14780;48.316;-1.050;2023-09-19T00:36:13;2.85;;;1.80;;
18568;SDS011;14780;48.316;-1.050;2023-09-19T00:38:57;3.13;;;1.63;;
18568;SDS011;14780;48.316;-1.050;2023-09-19T00:41:43;4.25;;;2.03;;
18568;SDS011;14780;48.316;-1.050;2023-09-19T00:44:28;3.53;;;2.00;;
18568;SDS011;14780;48.316;-1.050;2023-09-19T00:47:13;2.60;;;1.67;;
18568;SDS011;14780;48.316;-1.050;2023-09-19T00:50:01;2.28;;;1.60;;
18568;SDS011;14780;48.316;-1.050;2023-09-19T00:52:53;4.25;;;2.13;;
18568;SDS011;14780;48.316;-1.050;2023-09-19T00:55:41;2.40;;;1.90;;
18568;SDS011;14780;48.316;-1.050;2023-09-19T00:58:27;1.98;;;1.55;;
18568;SDS011;14780;48.316;-1.050;2023-09-19T01:01:17;5.82;;;2.22;;
18568;SDS011;14780;48.316;-1.050;2023-09-19T01:04:03;2.55;;;1.80;;
18568;SDS011;14780;48.316;-1.050;2023-09-19T01:06:49;3.58;;;1.70;;
18568;SDS011;14780;48.316;-1.050;2023-09-19T01:09:36;4.15;;;2.03;;
18568;SDS011;14780;48.316;-1.050;2023-09-19T01:12:23;2.33;;;1.60;;
18568;SDS011;14780;48.316;-1.050;2023-09-19T01:15:30;3.83;;;1.98;;
18568;SDS011;14780;48.316;-1.050;2023-09-19T01:18:35;4.00;;;1.73;;
18568;SDS011;14780;48.316;-1.050;2023-09-19T01:25:03;2.90;;;1.75;;
18568;SDS011;14780;48.316;-1.050;2023-09-19T01:31:03;3.55;;;1.73;;
18568;SDS011;14780;48.316;-1.050;2023-09-19T01:33:53;4.25;;;1.95;;
18568;SDS011;14780;48.316;-1.050;2023-09-19T01:36:43;1.98;;;1.50;;
18568;SDS011;14780;48.316;-1.050;2023-09-19T01:39:29;3.70;;;1.77;;
18568;SDS011;14780;48.316;-1.050;2023-09-19T01:51:56;4.35;;;1.60;;
18568;SDS011;14780;48.316;-1.050;2023-09-19T01:54:54;4.72;;;1.73;;
18568;SDS011;14780;48.316;-1.050;2023-09-19T01:57:48;3.95;;;1.88;;
18568;SDS011;14780;48.316;-1.050;2023-09-19T02:00:56;3.13;;;1.53;;
18568;SDS011;14780;48.316;-1.050;2023-09-19T02:03:43;2.90;;;1.70;;
18568;SDS011;14780;48.316;-1.050;2023-09-19T02:06:31;3.08;;;1.83;;
18568;SDS011;14780;48.316;-1.050;2023-09-19T02:09:17;2.85;;;1.65;;
18568;SDS011;14780;48.316;-1.050;2023-09-19T02:12:02;2.78;;;1.73;;
18568;SDS011;14780;48.316;-1.050;2023-09-19T02:14:50;2.65;;;1.50;;
18568;SDS011;14780;48.316;-1.050;2023-09-19T02:17:35;2.97;;;1.63;;
18568;SDS011;14780;48.316;-1.050;2023-09-19T02:20:19;3.35;;;1.58;;
18568;SDS011;14780;48.316;-1.050;2023-09-19T02:23:05;2.08;;;1.48;;
18568;SDS011;14780;48.316;-1.050;2023-09-19T02:25:54;3.25;;;1.52;;
18568;SDS011;14780;48.316;-1.050;2023-09-19T02:28:44;3.03;;;1.77;;
18568;SDS011;14780;48.316;-1.050;2023-09-19T02:31:29;5.03;;;1.85;;
18568;SDS011;14780;48.316;-1.050;2023-09-19T02:34:14;3.53;;;1.80;;
18568;SDS011;14780;48.316;-1.050;2023-09-19T02:37:00;2.50;;;1.65;;
18568;SDS011;14780;48.316;-1.050;2023-09-19T02:39:52;2.63;;;1.70;;
18568;SDS011;14780;48.316;-1.050;2023-09-19T02:42:36;3.83;;;1.70;;
18568;SDS011;14780;48.316;-1.050;2023-09-19T02:45:21;2.85;;;1.60;;
18568;SDS011;14780;48.316;-1.050;2023-09-19T02:48:07;2.47;;;1.50;;
18568;SDS011;14780;48.316;-1.050;2023-09-19T02:50:52;2.47;;;1.77;;
18568;SDS011;14780;48.316;-1.050;2023-09-19T02:53:36;3.47;;;1.73;;
18568;SDS011;14780;48.316;-1.050;2023-09-19T02:56:21;3.47;;;1.55;;
18568;SDS011;14780;48.316;-1.050;2023-09-19T02:59:06;1.98;;;1.48;;
18568;SDS011;14780;48.316;-1.050;2023-09-19T03:01:53;2.65;;;1.60;;
18568;SDS011;14780;48.316;-1.050;2023-09-19T03:04:38;3.08;;;1.50;;
18568;SDS011;14780;48.316;-1.050;2023-09-19T03:07:23;2.17;;;1.45;;
18568;SDS011;14780;48.316;-1.050;2023-09-19T03:10:09;3.03;;;1.67;;
18568;SDS011;14780;48.316;-1.050;2023-09-19T03:12:54;3.13;;;1.40;;
18568;SDS011;14780;48.316;-1.050;2023-09-19T03:15:41;3.63;;;1.58;;
18568;SDS011;14780;48.316;-1.050;2023-09-19T03:18:29;2.87;;;1.73;;
18568;SDS011;14780;48.316;-1.050;2023-09-19T03:21:16;3.33;;;1.70;;
18568;SDS011;14780;48.316;-1.050;2023-09-19T03:24:00;2.30;;;1.58;;
18568;SDS011;14780;48.316;-1.050;2023-09-19T03:26:45;2.10;;;1.37;;
18568;SDS011;14780;48.316;-1.050;2023-09-19T03:29:30;3.80;;;1.58;;
18568;SDS011;14780;48.316;-1.050;2023-09-19T03:32:15;2.60;;;1.55;;
18568;SDS011;14780;48.316;-1.050;2023-09-19T03:35:00;4.43;;;1.83;;
18568;SDS011;14780;48.316;-1.050;2023-09-19T03:37:45;4.70;;;1.70;;
18568;SDS011;14780;48.316;-1.050;2023-09-19T03:40:31;2.95;;;1.77;;
18568;SDS011;14780;48.316;-1.050;2023-09-19T03:43:15;2.75;;;1.75;;
18568;SDS011;14780;48.316;-1.050;2023-09-19T03:46:01;3.30;;;1.70;;
18568;SDS011;14780;48.316;-1.050;2023-09-19T03:48:51;3.13;;;1.65;;
18568;SDS011;14780;48.316;-1.050;2023-09-19T03:51:35;2.80;;;1.67;;
18568;SDS011;14780;48.316;-1.050;2023-09-19T03:54:21;3.53;;;1.77;;
18568;SDS011;14780;48.316;-1.050;2023-09-19T03:57:05;4.10;;;1.67;;
18568;SDS011;14780;48.316;-1.050;2023-09-19T03:59:50;2.78;;;1.35;;
18568;SDS011;14780;48.316;-1.050;2023-09-19T04:02:37;2.23;;;1.70;;
18568;SDS011;14780;48.316;-1.050;2023-09-19T04:05:23;2.58;;;1.70;;
18568;SDS011;14780;48.316;-1.050;2023-09-19T04:08:08;2.78;;;1.60;;
18568;SDS011;14780;48.316;-1.050;2023-09-19T04:10:52;3.38;;;1.75;;
18568;SDS011;14780;48.316;-1.050;2023-09-19T04:13:37;2.42;;;1.60;;
18568;SDS011;14780;48.316;-1.050;2023-09-19T04:16:22;2.90;;;1.67;;
18568;SDS011;14780;48.316;-1.050;2023-09-19T04:19:06;2.65;;;1.50;;
18568;SDS011;14780;48.316;-1.050;2023-09-19T04:21:51;3.35;;;1.58;;
18568;SDS011;14780;48.316;-1.050;2023-09-19T04:24:36;2.80;;;1.73;;
18568;SDS011;14780;48.316;-1.050;2023-09-19T04:27:22;2.40;;;1.65;;
18568;SDS011;14780;48.316;-1.050;2023-09-19T04:30:07;2.83;;;1.73;;
18568;SDS011;14780;48.316;-1.050;2023-09-19T04:32:55;4.22;;;1.52;;
18568;SDS011;14780;48.316;-1.050;2023-09-19T04:35:40;3.25;;;1.73;;
18568;SDS011;14780;48.316;-1.050;2023-09-19T04:38:25;2.95;;;1.90;;
18568;SDS011;14780;48.316;-1.050;2023-09-19T04:41:11;3.55;;;1.65;;
18568;SDS011;14780;48.316;-1.050;2023-09-19T04:43:56;3.55;;;1.85;;
18568;SDS011;14780;48.316;-1.050;2023-09-19T04:46:41;2.83;;;1.92;;
18568;SDS011;14780;48.316;-1.050;2023-09-19T04:49:26;3.03;;;1.70;;
18568;SDS011;14780;48.316;-1.050;2023-09-19T04:52:11;2.78;;;1.50;;
18568;SDS011;14780;48.316;-1.050;2023-09-19T04:54:58;2.67;;;1.67;;
18568;SDS011;14780;48.316;-1.050;2023-09-19T04:57:44;3.40;;;1.70;;
18568;SDS011;14780;48.316;-1.050;2023-09-19T05:00:29;2.88;;;1.83;;
18568;SDS011;14780;48.316;-1.050;2023-09-19T05:03:18;3.13;;;1.60;;
18568;SDS011;14780;48.316;-1.050;2023-09-19T05:06:04;2.35;;;1.48;;
18568;SDS011;14780;48.316;-1.050;2023-09-19T05:08:49;4.47;;;1.90;;
18568;SDS011;14780;48.316;-1.050;2023-09-19T05:11:35;3.08;;;1.80;;
18568;SDS011;14780;48.316;-1.050;2023-09-19T05:14:22;3.10;;;1.60;;
18568;SDS011;14780;48.316;-1.050;2023-09-19T05:17:07;4.03;;;1.85;;
18568;SDS011;14780;48.316;-1.050;2023-09-19T05:19:52;4.53;;;1.92;;
18568;SDS011;14780;48.316;-1.050;2023-09-19T05:22:36;2.40;;;1.52;;
18568;SDS011;14780;48.316;-1.050;2023-09-19T05:25:24;2.55;;;1.80;;
18568;SDS011;14780;48.316;-1.050;2023-09-19T05:28:12;3.10;;;1.67;;
18568;SDS011;14780;48.316;-1.050;2023-09-19T05:31:00;3.55;;;1.80;;
18568;SDS011;14780;48.316;-1.050;2023-09-19T05:33:48;4.13;;;1.95;;
18568;SDS011;14780;48.316;-1.050;2023-09-19T05:36:33;3.75;;;2.00;;
18568;SDS011;14780;48.316;-1.050;2023-09-19T05:39:18;3.78;;;1.90;;
18568;SDS011;14780;48.316;-1.050;2023-09-19T05:42:03;2.42;;;1.58;;
18568;SDS011;14780;48.316;-1.050;2023-09-19T05:44:48;3.05;;;1.75;;
18568;SDS011;14780;48.316;-1.050;2023-09-19T05:47:32;2.87;;;1.67;;
18568;SDS011;14780;48.316;-1.050;2023-09-19T05:50:17;2.53;;;1.60;;
18568;SDS011;14780;48.316;-1.050;2023-09-19T05:53:03;2.75;;;1.70;;
18568;SDS011;14780;48.316;-1.050;2023-09-19T05:55:48;3.78;;;1.70;;
18568;SDS011;14780;48.316;-1.050;2023-09-19T05:58:33;3.07;;;1.80;;
18568;SDS011;14780;48.316;-1.050;2023-09-19T06:01:18;2.00;;;1.50;;
18568;SDS011;14780;48.316;-1.050;2023-09-19T06:04:03;3.55;;;1.70;;
18568;SDS011;14780;48.316;-1.050;2023-09-19T06:06:48;4.25;;;1.80;;
18568;SDS011;14780;48.316;-1.050;2023-09-19T06:09:33;4.28;;;2.03;;
18568;SDS011;14780;48.316;-1.050;2023-09-19T06:12:18;3.72;;;1.50;;
18568;SDS011;14780;48.316;-1.050;2023-09-19T06:15:06;5.85;;;2.03;;
18568;SDS011;14780;48.316;-1.050;2023-09-19T06:17:53;3.95;;;1.70;;
18568;SDS011;14780;48.316;-1.050;2023-09-19T06:20:39;3.58;;;1.70;;
18568;SDS011;14780;48.316;-1.050;2023-09-19T06:23:28;2.20;;;1.60;;
18568;SDS011;14780;48.316;-1.050;2023-09-19T06:26:12;2.38;;;1.50;;
18568;SDS011;14780;48.316;-1.050;2023-09-19T06:28:57;4.43;;;1.77;;
18568;SDS011;14780;48.316;-1.050;2023-09-19T06:31:43;5.25;;;2.05;;
18568;SDS011;14780;48.316;-1.050;2023-09-19T06:34:28;3.88;;;1.67;;
18568;SDS011;14780;48.316;-1.050;2023-09-19T06:37:12;3.73;;;1.90;;
18568;SDS011;14780;48.316;-1.050;2023-09-19T06:39:57;3.70;;;1.85;;
18568;SDS011;14780;48.316;-1.050;2023-09-19T06:43:00;4.05;;;1.73;;
18568;SDS011;14780;48.316;-1.050;2023-09-19T06:45:46;3.70;;;2.00;;
18568;SDS011;14780;48.316;-1.050;2023-09-19T06:48:31;2.95;;;1.80;;
18568;SDS011;14780;48.316;-1.050;2023-09-19T06:51:16;4.63;;;2.03;;
18568;SDS011;14780;48.316;-1.050;2023-09-19T06:54:02;3.50;;;1.60;;
18568;SDS011;14780;48.316;-1.050;2023-09-19T06:56:48;3.92;;;1.77;;
18568;SDS011;14780;48.316;-1.050;2023-09-19T06:59:33;2.90;;;1.67;;
18568;SDS011;14780;48.316;-1.050;2023-09-19T07:02:18;6.30;;;2.35;;
18568;SDS011;14780;48.316;-1.050;2023-09-19T07:05:06;6.93;;;2.05;;
18568;SDS011;14780;48.316;-1.050;2023-09-19T07:07:50;3.75;;;1.80;;
18568;SDS011;14780;48.316;-1.050;2023-09-19T07:10:35;2.75;;;1.60;;
18568;SDS011;14780;48.316;-1.050;2023-09-19T07:13:20;2.88;;;1.88;;
18568;SDS011;14780;48.316;-1.050;2023-09-19T07:16:04;5.57;;;1.77;;
18568;SDS011;14780;48.316;-1.050;2023-09-19T07:18:49;4.10;;;1.83;;
18568;SDS011;14780;48.316;-1.050;2023-09-19T07:21:33;5.05;;;1.88;;
18568;SDS011;14780;48.316;-1.050;2023-09-19T07:24:22;4.40;;;2.05;;
18568;SDS011;14780;48.316;-1.050;2023-09-19T07:27:07;5.63;;;2.15;;
18568;SDS011;14780;48.316;-1.050;2023-09-19T07:29:52;4.05;;;2.00;;
18568;SDS011;14780;48.316;-1.050;2023-09-19T07:32:37;3.95;;;2.17;;
18568;SDS011;14780;48.316;-1.050;2023-09-19T07:35:22;4.70;;;2.17;;
18568;SDS011;14780;48.316;-1.050;2023-09-19T07:38:07;5.32;;;2.00;;
18568;SDS011;14780;48.316;-1.050;2023-09-19T07:40:59;9.07;;;2.40;;
18568;SDS011;14780;48.316;-1.050;2023-09-19T07:43:46;6.13;;;2.40;;
18568;SDS011;14780;48.316;-1.050;2023-09-19T07:46:31;8.35;;;2.90;;
18568;SDS011;14780;48.316;-1.050;2023-09-19T07:49:16;10.63;;;2.83;;
18568;SDS011;14780;48.316;-1.050;2023-09-19T07:52:01;8.07;;;2.90;;
18568;SDS011;14780;48.316;-1.050;2023-09-19T07:54:46;10.20;;;3.05;;
18568;SDS011;14780;48.316;-1.050;2023-09-19T07:57:33;9.57;;;2.80;;
18568;SDS011;14780;48.316;-1.050;2023-09-19T08:00:18;8.23;;;3.05;;
18568;SDS011;14780;48.316;-1.050;2023-09-19T08:03:04;8.32;;;3.13;;
18568;SDS011;14780;48.316;-1.050;2023-09-19T08:05:49;8.13;;;2.65;;
18568;SDS011;14780;48.316;-1.050;2023-09-19T08:08:34;9.70;;;2.92;;
18568;SDS011;14780;48.316;-1.050;2023-09-19T08:11:23;7.35;;;2.97;;
18568;SDS011;14780;48.316;-1.050;2023-09-19T08:14:08;6.03;;;2.72;;
18568;SDS011;14780;48.316;-1.050;2023-09-19T08:16:56;7.35;;;2.53;;
18568;SDS011;14780;48.316;-1.050;2023-09-19T08:19:42;7.03;;;2.80;;
18568;SDS011;14780;48.316;-1.050;2023-09-19T08:22:30;7.07;;;2.60;;
18568;SDS011;14780;48.316;-1.050;2023-09-19T08:25:15;6.65;;;3.10;;
18568;SDS011;14780;48.316;-1.050;2023-09-19T08:28:03;7.82;;;2.80;;
18568;SDS011;14780;48.316;-1.050;2023-09-19T08:30:52;11.63;;;2.95;;
18568;SDS011;14780;48.316;-1.050;2023-09-19T08:33:39;6.80;;;2.92;;
18568;SDS011;14780;48.316;-1.050;2023-09-19T08:36:24;7.88;;;3.10;;
18568;SDS011;14780;48.316;-1.050;2023-09-19T08:39:09;8.57;;;3.33;;
18568;SDS011;14780;48.316;-1.050;2023-09-19T08:41:58;8.57;;;3.07;;
18568;SDS011;14780;48.316;-1.050;2023-09-19T08:44:43;7.78;;;3.38;;
18568;SDS011;14780;48.316;-1.050;2023-09-19T08:47:34;9.15;;;3.15;;
18568;SDS011;14780;48.316;-1.050;2023-09-19T08:50:27;10.40;;;3.05;;
18568;SDS011;14780;48.316;-1.050;2023-09-19T08:53:20;13.55;;;3.50;;
18568;SDS011;14780;48.316;-1.050;2023-09-19T08:56:21;7.55;;;3.15;;
18568;SDS011;14780;48.316;-1.050;2023-09-19T08:59:07;9.65;;;3.22;;
18568;SDS011;14780;48.316;-1.050;2023-09-19T09:01:53;8.20;;;3.05;;
18568;SDS011;14780;48.316;-1.050;2023-09-19T09:04:39;10.75;;;3.10;;
18568;SDS011;14780;48.316;-1.050;2023-09-19T09:07:26;6.97;;;2.97;;
18568;SDS011;14780;48.316;-1.050;2023-09-19T09:10:12;7.75;;;3.25;;
18568;SDS011;14780;48.316;-1.050;2023-09-19T09:12:57;7.47;;;3.10;;
18568;SDS011;14780;48.316;-1.050;2023-09-19T09:15:43;10.55;;;3.08;;
18568;SDS011;14780;48.316;-1.050;2023-09-19T09:18:32;8.55;;;3.53;;
18568;SDS011;14780;48.316;-1.050;2023-09-19T09:21:16;9.18;;;3.30;;
18568;SDS011;14780;48.316;-1.050;2023-09-19T09:24:25;10.27;;;3.27;;
18568;SDS011;14780;48.316;-1.050;2023-09-19T09:27:14;7.97;;;3.38;;
18568;SDS011;14780;48.316;-1.050;2023-09-19T09:29:59;10.35;;;3.35;;
18568;SDS011;14780;48.316;-1.050;2023-09-19T09:32:43;9.20;;;3.27;;
18568;SDS011;14780;48.316;-1.050;2023-09-19T09:35:28;7.15;;;2.92;;
18568;SDS011;14780;48.316;-1.050;2023-09-19T09:38:13;8.73;;;3.17;;
18568;SDS011;14780;48.316;-1.050;2023-09-19T09:41:02;6.33;;;2.90;;
18568;SDS011;14780;48.316;-1.050;2023-09-19T09:43:50;8.75;;;3.42;;
18568;SDS011;14780;48.316;-1.050;2023-09-19T09:46:36;10.05;;;3.35;;
18568;SDS011;14780;48.316;-1.050;2023-09-19T09:49:33;8.45;;;3.40;;
18568;SDS011;14780;48.316;-1.050;2023-09-19T09:52:18;7.63;;;2.88;;
18568;SDS011;14780;48.316;-1.050;2023-09-19T09:55:07;6.78;;;2.83;;
18568;SDS011;14780;48.316;-1.050;2023-09-19T09:58:15;8.02;;;2.85;;
18568;SDS011;14780;48.316;-1.050;2023-09-19T10:01:06;7.45;;;3.25;;
18568;SDS011;14780;48.316;-1.050;2023-09-19T10:03:58;10.73;;;3.40;;
18568;SDS011;14780;48.316;-1.050;2023-09-19T10:06:43;9.10;;;3.33;;
18568;SDS011;14780;48.316;-1.050;2023-09-19T10:09:45;9.65;;;3.53;;
18568;SDS011;14780;48.316;-1.050;2023-09-19T10:12:34;8.93;;;2.80;;
18568;SDS011;14780;48.316;-1.050;2023-09-19T10:15:22;10.07;;;3.78;;
18568;SDS011;14780;48.316;-1.050;2023-09-19T10:18:10;9.88;;;3.08;;
18568;SDS011;14780;48.316;-1.050;2023-09-19T10:21:01;8.27;;;3.13;;
18568;SDS011;14780;48.316;-1.050;2023-09-19T10:23:48;9.05;;;3.28;;
18568;SDS011;14780;48.316;-1.050;2023-09-19T10:26:37;15.63;;;5.32;;
18568;SDS011;14780;48.316;-1.050;2023-09-19T10:29:27;17.05;;;4.65;;
18568;SDS011;14780;48.316;-1.050;2023-09-19T10:32:14;10.98;;;4.80;;
18568;SDS011;14780;48.316;-1.050;2023-09-19T10:35:04;11.65;;;4.20;;
18568;SDS011;14780;48.316;-1.050;2023-09-19T10:37:50;14.70;;;4.30;;
18568;SDS011;14780;48.316;-1.050;2023-09-19T10:40:38;8.02;;;3.17;;
18568;SDS011;14780;48.316;-1.050;2023-09-19T10:43:30;11.20;;;3.50;;
18568;SDS011;14780;48.316;-1.050;2023-09-19T10:46:15;12.25;;;3.67;;
18568;SDS011;14780;48.316;-1.050;2023-09-19T10:49:00;11.85;;;4.05;;
18568;SDS011;14780;48.316;-1.050;2023-09-19T10:51:46;10.65;;;3.47;;
18568;SDS011;14780;48.316;-1.050;2023-09-19T10:54:34;10.82;;;3.50;;
18568;SDS011;14780;48.316;-1.050;2023-09-19T10:57:23;10.05;;;3.75;;
18568;SDS011;14780;48.316;-1.050;2023-09-19T11:00:11;6.78;;;3.20;;
18568;SDS011;14780;48.316;-1.050;2023-09-19T11:06:03;8.45;;;3.22;;
18568;SDS011;14780;48.316;-1.050;2023-09-19T11:09:02;7.18;;;3.00;;
18568;SDS011;14780;48.316;-1.050;2023-09-19T11:12:05;7.70;;;3.42;;
18568;SDS011;14780;48.316;-1.050;2023-09-19T11:14:50;8.00;;;3.43;;
18568;SDS011;14780;48.316;-1.050;2023-09-19T11:17:36;10.18;;;3.53;;
18568;SDS011;14780;48.316;-1.050;2023-09-19T11:20:24;8.40;;;3.42;;
18568;SDS011;14780;48.316;-1.050;2023-09-19T11:23:19;7.40;;;3.00;;
18568;SDS011;14780;48.316;-1.050;2023-09-19T11:26:10;5.55;;;3.10;;
18568;SDS011;14780;48.316;-1.050;2023-09-19T11:29:27;10.37;;;3.63;;
18568;SDS011;14780;48.316;-1.050;2023-09-19T11:32:14;8.87;;;3.70;;
18568;SDS011;14780;48.316;-1.050;2023-09-19T11:35:06;9.05;;;3.42;;
18568;SDS011;14780;48.316;-1.050;2023-09-19T11:40:36;7.93;;;3.42;;
18568;SDS011;14780;48.316;-1.050;2023-09-19T11:43:28;12.82;;;3.88;;
18568;SDS011;14780;48.316;-1.050;2023-09-19T11:46:14;8.40;;;3.40;;
18568;SDS011;14780;48.316;-1.050;2023-09-19T11:49:06;9.25;;;3.55;;
18568;SDS011;14780;48.316;-1.050;2023-09-19T11:51:54;35.37;;;6.60;;
18568;SDS011;14780;48.316;-1.050;2023-09-19T11:54:39;36.97;;;7.22;;
18568;SDS011;14780;48.316;-1.050;2023-09-19T11:57:25;29.95;;;6.53;;
18568;SDS011;14780;48.316;-1.050;2023-09-19T12:00:17;23.70;;;5.30;;
18568;SDS011;14780;48.316;-1.050;2023-09-19T12:03:05;34.47;;;6.13;;
18568;SDS011;14780;48.316;-1.050;2023-09-19T12:05:54;22.13;;;5.60;;
18568;SDS011;14780;48.316;-1.050;2023-09-19T12:08:44;15.98;;;4.75;;
18568;SDS011;14780;48.316;-1.050;2023-09-19T12:11:32;16.73;;;4.68;;
18568;SDS011;14780;48.316;-1.050;2023-09-19T12:14:25;14.70;;;4.30;;
18568;SDS011;14780;48.316;-1.050;2023-09-19T12:17:11;16.15;;;4.82;;
18568;SDS011;14780;48.316;-1.050;2023-09-19T12:19:56;13.65;;;4.45;;
18568;SDS011;14780;48.316;-1.050;2023-09-19T12:22:41;13.00;;;4.53;;
18568;SDS011;14780;48.316;-1.050;2023-09-19T12:25:30;14.40;;;4.40;;
18568;SDS011;14780;48.316;-1.050;2023-09-19T12:28:30;13.15;;;4.30;;
18568;SDS011;14780;48.316;-1.050;2023-09-19T12:31:18;11.27;;;4.27;;
18568;SDS011;14780;48.316;-1.050;2023-09-19T12:34:03;15.85;;;4.38;;
18568;SDS011;14780;48.316;-1.050;2023-09-19T12:36:48;11.55;;;4.22;;
18568;SDS011;14780;48.316;-1.050;2023-09-19T12:39:32;12.80;;;4.82;;
18568;SDS011;14780;48.316;-1.050;2023-09-19T12:42:23;19.30;;;4.73;;
18568;SDS011;14780;48.316;-1.050;2023-09-19T12:45:13;10.10;;;4.25;;
18568;SDS011;14780;48.316;-1.050;2023-09-19T12:48:43;10.77;;;3.80;;
18568;SDS011;14780;48.316;-1.050;2023-09-19T12:51:18;12.93;;;4.10;;
18568;SDS011;14780;48.316;-1.050;2023-09-19T12:54:07;12.82;;;4.40;;
18568;SDS011;14780;48.316;-1.050;2023-09-19T12:56:51;14.55;;;4.43;;
18568;SDS011;14780;48.316;-1.050;2023-09-19T12:59:38;12.00;;;3.72;;
18568;SDS011;14780;48.316;-1.050;2023-09-19T13:02:23;13.73;;;4.32;;
18568;SDS011;14780;48.316;-1.050;2023-09-19T13:05:09;14.88;;;4.68;;
18568;SDS011;14780;48.316;-1.050;2023-09-19T13:07:53;13.07;;;4.67;;
18568;SDS011;14780;48.316;-1.050;2023-09-19T13:13:47;70.22;;;12.20;;
18568;SDS011;14780;48.316;-1.050;2023-09-19T13:17:01;58.97;;;11.02;;
18568;SDS011;14780;48.316;-1.050;2023-09-19T13:19:48;111.97;;;13.70;;
18568;SDS011;14780;48.316;-1.050;2023-09-19T13:25:32;64.35;;;9.75;;
18568;SDS011;14780;48.316;-1.050;2023-09-19T13:28:18;65.65;;;10.73;;
18568;SDS011;14780;48.316;-1.050;2023-09-19T13:31:03;76.68;;;10.85;;
18568;SDS011;14780;48.316;-1.050;2023-09-19T13:33:49;121.33;;;15.83;;
18568;SDS011;14780;48.316;-1.050;2023-09-19T13:36:36;99.15;;;13.15;;
18568;SDS011;14780;48.316;-1.050;2023-09-19T13:39:21;127.75;;;17.30;;
18568;SDS011;14780;48.316;-1.050;2023-09-19T13:42:08;132.45;;;17.23;;
18568;SDS011;14780;48.316;-1.050;2023-09-19T13:44:55;186.05;;;22.75;;
18568;SDS011;14780;48.316;-1.050;2023-09-19T13:47:40;168.02;;;23.23;;
18568;SDS011;14780;48.316;-1.050;2023-09-19T13:50:25;166.15;;;19.55;;
18568;SDS011;14780;48.316;-1.050;2023-09-19T13:53:12;261.50;;;33.10;;
18568;SDS011;14780;48.316;-1.050;2023-09-19T13:55:57;181.13;;;25.30;;
18568;SDS011;14780;48.316;-1.050;2023-09-19T13:58:42;176.85;;;22.35;;
18568;SDS011;14780;48.316;-1.050;2023-09-19T14:01:26;94.93;;;13.25;;
18568;SDS011;14780;48.316;-1.050;2023-09-19T14:04:11;85.55;;;13.68;;
18568;SDS011;14780;48.316;-1.050;2023-09-19T14:06:55;85.35;;;13.75;;
18568;SDS011;14780;48.316;-1.050;2023-09-19T14:09:41;81.43;;;12.60;;
18568;SDS011;14780;48.316;-1.050;2023-09-19T14:12:26;52.58;;;8.70;;
18568;SDS011;14780;48.316;-1.050;2023-09-19T14:15:10;41.60;;;7.25;;
18568;SDS011;14780;48.316;-1.050;2023-09-19T14:17:56;54.78;;;8.68;;
18568;SDS011;14780;48.316;-1.050;2023-09-19T14:20:42;59.90;;;10.32;;
18568;SDS011;14780;48.316;-1.050;2023-09-19T14:23:27;291.92;;;35.10;;
18568;SDS011;14780;48.316;-1.050;2023-09-19T14:26:12;245.60;;;30.80;;
18568;SDS011;14780;48.316;-1.050;2023-09-19T14:28:57;149.73;;;21.77;;
18568;SDS011;14780;48.316;-1.050;2023-09-19T14:31:42;113.15;;;16.05;;
18568;SDS011;14780;48.316;-1.050;2023-09-19T14:34:26;92.57;;;14.32;;
18568;SDS011;14780;48.316;-1.050;2023-09-19T14:37:11;104.07;;;14.67;;
18568;SDS011;14780;48.316;-1.050;2023-09-19T14:39:55;91.70;;;14.88;;
18568;SDS011;14780;48.316;-1.050;2023-09-19T14:42:40;93.82;;;15.15;;
18568;SDS011;14780;48.316;-1.050;2023-09-19T14:45:27;55.65;;;9.80;;
18568;SDS011;14780;48.316;-1.050;2023-09-19T14:48:12;67.40;;;9.43;;
18568;SDS011;14780;48.316;-1.050;2023-09-19T14:51:01;36.58;;;7.55;;
18568;SDS011;14780;48.316;-1.050;2023-09-19T14:53:52;22.30;;;5.15;;
18568;SDS011;14780;48.316;-1.050;2023-09-19T14:56:37;19.27;;;5.03;;
18568;SDS011;14780;48.316;-1.050;2023-09-19T14:59:22;19.83;;;5.10;;
18568;SDS011;14780;48.316;-1.050;2023-09-19T15:02:07;19.43;;;5.27;;
18568;SDS011;14780;48.316;-1.050;2023-09-19T15:04:52;16.10;;;5.03;;
18568;SDS011;14780;48.316;-1.050;2023-09-19T15:07:37;17.52;;;4.70;;
18568;SDS011;14780;48.316;-1.050;2023-09-19T15:10:22;19.70;;;4.70;;
18568;SDS011;14780;48.316;-1.050;2023-09-19T15:13:07;21.25;;;4.93;;
18568;SDS011;14780;48.316;-1.050;2023-09-19T15:15:52;16.40;;;5.03;;
18568;SDS011;14780;48.316;-1.050;2023-09-19T15:18:37;15.10;;;4.38;;
18568;SDS011;14780;48.316;-1.050;2023-09-19T15:21:25;12.35;;;4.60;;
18568;SDS011;14780;48.316;-1.050;2023-09-19T15:24:09;13.32;;;4.28;;
18568;SDS011;14780;48.316;-1.050;2023-09-19T15:26:54;10.90;;;4.40;;
18568;SDS011;14780;48.316;-1.050;2023-09-19T15:29:39;9.80;;;3.63;;
18568;SDS011;14780;48.316;-1.050;2023-09-19T15:32:24;12.15;;;3.92;;
18568;SDS011;14780;48.316;-1.050;2023-09-19T15:35:09;13.25;;;4.10;;
18568;SDS011;14780;48.316;-1.050;2023-09-19T15:37:57;13.00;;;4.30;;
18568;SDS011;14780;48.316;-1.050;2023-09-19T15:40:47;11.73;;;4.72;;
18568;SDS011;14780;48.316;-1.050;2023-09-19T15:43:31;10.10;;;4.13;;
18568;SDS011;14780;48.316;-1.050;2023-09-19T15:46:18;11.95;;;4.25;;
18568;SDS011;14780;48.316;-1.050;2023-09-19T15:49:04;19.15;;;4.78;;
18568;SDS011;14780;48.316;-1.050;2023-09-19T15:51:51;12.93;;;4.65;;
18568;SDS011;14780;48.316;-1.050;2023-09-19T15:54:36;9.88;;;4.22;;
18568;SDS011;14780;48.316;-1.050;2023-09-19T15:57:25;12.90;;;3.97;;
18568;SDS011;14780;48.316;-1.050;2023-09-19T16:00:12;13.02;;;4.60;;
18568;SDS011;14780;48.316;-1.050;2023-09-19T16:03:00;11.25;;;4.25;;
18568;SDS011;14780;48.316;-1.050;2023-09-19T16:05:45;14.20;;;3.97;;
18568;SDS011;14780;48.316;-1.050;2023-09-19T16:08:30;11.70;;;4.33;;
18568;SDS011;14780;48.316;-1.050;2023-09-19T16:11:17;8.73;;;3.92;;
18568;SDS011;14780;48.316;-1.050;2023-09-19T16:14:06;15.15;;;4.22;;
18568;SDS011;14780;48.316;-1.050;2023-09-19T16:16:51;10.68;;;3.58;;
18568;SDS011;14780;48.316;-1.050;2023-09-19T16:19:36;7.22;;;3.47;;
18568;SDS011;14780;48.316;-1.050;2023-09-19T16:22:21;7.43;;;3.67;;
18568;SDS011;14780;48.316;-1.050;2023-09-19T16:25:06;11.13;;;3.83;;
18568;SDS011;14780;48.316;-1.050;2023-09-19T16:27:55;8.02;;;3.55;;
18568;SDS011;14780;48.316;-1.050;2023-09-19T16:30:39;8.40;;;3.90;;
18568;SDS011;14780;48.316;-1.050;2023-09-19T16:33:24;7.90;;;3.47;;
18568;SDS011;14780;48.316;-1.050;2023-09-19T16:36:10;9.48;;;3.60;;
18568;SDS011;14780;48.316;-1.050;2023-09-19T16:38:56;9.45;;;3.60;;
18568;SDS011;14780;48.316;-1.050;2023-09-19T16:41:41;8.25;;;3.28;;
18568;SDS011;14780;48.316;-1.050;2023-09-19T16:44:27;6.57;;;3.50;;
18568;SDS011;14780;48.316;-1.050;2023-09-19T16:47:13;10.65;;;4.13;;
18568;SDS011;14780;48.316;-1.050;2023-09-19T16:49:58;7.75;;;3.35;;
18568;SDS011;14780;48.316;-1.050;2023-09-19T16:52:42;8.85;;;4.28;;